sensor_id;sensor_type;location;lat;lon;timestamp;P1;durP1;ratioP1;P2;durP2;ratioP2
6292;SDS011;3179;54.350;10.102;2023-03-08T00:01:59;5.20;;;0.90;;
6292;SDS011;3179;54.350;10.102;2023-03-08T00:04:26;2.53;;;0.90;;
6292;SDS011;3179;54.350;10.102;2023-03-08T00:06:53;1.13;;;0.90;;
6292;SDS011;3179;54.350;10.102;2023-03-08T00:09:21;1.70;;;0.90;;
6292;SDS011;3179;54.350;10.102;2023-03-08T00:11:48;2.30;;;0.90;;
6292;SDS011;3179;54.350;10.102;2023-03-08T00:14:15;3.63;;;0.70;;
6292;SDS011;3179;54.350;10.102;2023-03-08T00:16:42;2.73;;;0.97;;
6292;SDS011;3179;54.350;10.102;2023-03-08T00:19:09;1.30;;;0.60;;
6292;SDS011;3179;54.350;10.102;2023-03-08T00:21:36;1.20;;;0.67;;
6292;SDS011;3179;54.350;10.102;2023-03-08T00:24:03;1.30;;;0.60;;
6292;SDS011;3179;54.350;10.102;2023-03-08T00:26:31;0.93;;;0.83;;
6292;SDS011;3179;54.350;10.102;2023-03-08T00:28:58;2.77;;;0.90;;
6292;SDS011;3179;54.350;10.102;2023-03-08T00:31:25;1.27;;;0.63;;
6292;SDS011;3179;54.350;10.102;2023-03-08T00:33:52;1.70;;;0.60;;
6292;SDS011;3179;54.350;10.102;2023-03-08T00:36:19;1.90;;;1.00;;
6292;SDS011;3179;54.350;10.102;2023-03-08T00:38:46;1.13;;;0.90;;
6292;SDS011;3179;54.350;10.102;2023-03-08T00:41:15;1.27;;;0.90;;
6292;SDS011;3179;54.350;10.102;2023-03-08T00:43:43;2.50;;;0.80;;
6292;SDS011;3179;54.350;10.102;2023-03-08T00:46:11;1.13;;;0.60;;
6292;SDS011;3179;54.350;10.102;2023-03-08T00:48:39;2.30;;;0.90;;
6292;SDS011;3179;54.350;10.102;2023-03-08T00:51:07;3.53;;;0.73;;
6292;SDS011;3179;54.350;10.102;2023-03-08T00:53:36;2.00;;;0.93;;
6292;SDS011;3179;54.350;10.102;2023-03-08T00:56:03;2.77;;;0.80;;
6292;SDS011;3179;54.350;10.102;2023-03-08T00:58:30;1.93;;;0.80;;
6292;SDS011;3179;54.350;10.102;2023-03-08T01:00:59;1.63;;;0.70;;
6292;SDS011;3179;54.350;10.102;2023-03-08T01:03:26;2.67;;;0.80;;
6292;SDS011;3179;54.350;10.102;2023-03-08T01:05:53;1.23;;;0.80;;
6292;SDS011;3179;54.350;10.102;2023-03-08T01:08:23;0.90;;;0.60;;
6292;SDS011;3179;54.350;10.102;2023-03-08T01:10:52;2.03;;;0.60;;
6292;SDS011;3179;54.350;10.102;2023-03-08T01:13:21;2.53;;;0.90;;
6292;SDS011;3179;54.350;10.102;2023-03-08T01:15:48;0.93;;;0.50;;
6292;SDS011;3179;54.350;10.102;2023-03-08T01:18:17;2.93;;;0.87;;
6292;SDS011;3179;54.350;10.102;2023-03-08T01:20:44;1.43;;;0.77;;
6292;SDS011;3179;54.350;10.102;2023-03-08T01:23:10;1.00;;;0.70;;
6292;SDS011;3179;54.350;10.102;2023-03-08T01:25:37;0.97;;;0.63;;
6292;SDS011;3179;54.350;10.102;2023-03-08T01:28:04;0.77;;;0.63;;
6292;SDS011;3179;54.350;10.102;2023-03-08T01:30:31;2.43;;;0.87;;
6292;SDS011;3179;54.350;10.102;2023-03-08T01:32:58;1.13;;;0.50;;
6292;SDS011;3179;54.350;10.102;2023-03-08T01:35:26;5.13;;;0.80;;
6292;SDS011;3179;54.350;10.102;2023-03-08T01:37:53;0.97;;;0.60;;
6292;SDS011;3179;54.350;10.102;2023-03-08T01:40:19;1.30;;;0.80;;
6292;SDS011;3179;54.350;10.102;2023-03-08T01:42:47;2.57;;;0.97;;
6292;SDS011;3179;54.350;10.102;2023-03-08T01:48:17;4.43;;;1.27;;
6292;SDS011;3179;54.350;10.102;2023-03-08T01:50:50;1.43;;;0.80;;
6292;SDS011;3179;54.350;10.102;2023-03-08T01:53:16;0.97;;;0.60;;
6292;SDS011;3179;54.350;10.102;2023-03-08T01:55:43;1.80;;;0.60;;
6292;SDS011;3179;54.350;10.102;2023-03-08T01:58:10;3.53;;;0.70;;
6292;SDS011;3179;54.350;10.102;2023-03-08T02:00:37;2.50;;;0.77;;
6292;SDS011;3179;54.350;10.102;2023-03-08T02:03:05;2.70;;;0.80;;
6292;SDS011;3179;54.350;10.102;2023-03-08T02:05:35;1.90;;;0.80;;
6292;SDS011;3179;54.350;10.102;2023-03-08T02:08:05;3.60;;;0.90;;
6292;SDS011;3179;54.350;10.102;2023-03-08T02:10:31;0.50;;;0.50;;
6292;SDS011;3179;54.350;10.102;2023-03-08T02:13:00;4.30;;;0.83;;
6292;SDS011;3179;54.350;10.102;2023-03-08T02:15:27;3.70;;;0.70;;
6292;SDS011;3179;54.350;10.102;2023-03-08T02:17:54;0.60;;;0.50;;
6292;SDS011;3179;54.350;10.102;2023-03-08T02:20:22;1.20;;;0.60;;
6292;SDS011;3179;54.350;10.102;2023-03-08T02:22:55;2.00;;;0.90;;
6292;SDS011;3179;54.350;10.102;2023-03-08T02:25:32;0.80;;;0.57;;
6292;SDS011;3179;54.350;10.102;2023-03-08T02:27:59;1.93;;;0.80;;
6292;SDS011;3179;54.350;10.102;2023-03-08T02:30:29;1.40;;;0.70;;
6292;SDS011;3179;54.350;10.102;2023-03-08T02:32:57;0.80;;;0.50;;
6292;SDS011;3179;54.350;10.102;2023-03-08T02:35:24;1.23;;;0.90;;
6292;SDS011;3179;54.350;10.102;2023-03-08T02:37:50;3.27;;;0.70;;
6292;SDS011;3179;54.350;10.102;2023-03-08T02:40:19;1.23;;;0.60;;
6292;SDS011;3179;54.350;10.102;2023-03-08T02:42:46;2.97;;;0.80;;
6292;SDS011;3179;54.350;10.102;2023-03-08T02:45:12;1.43;;;0.70;;
6292;SDS011;3179;54.350;10.102;2023-03-08T02:47:39;0.90;;;0.57;;
6292;SDS011;3179;54.350;10.102;2023-03-08T02:50:07;1.10;;;0.63;;
6292;SDS011;3179;54.350;10.102;2023-03-08T02:52:35;0.97;;;0.50;;
6292;SDS011;3179;54.350;10.102;2023-03-08T02:55:01;2.80;;;1.00;;
6292;SDS011;3179;54.350;10.102;2023-03-08T02:57:30;1.67;;;0.60;;
6292;SDS011;3179;54.350;10.102;2023-03-08T02:59:56;2.30;;;0.87;;
6292;SDS011;3179;54.350;10.102;2023-03-08T03:02:23;1.77;;;0.50;;
6292;SDS011;3179;54.350;10.102;2023-03-08T03:04:50;1.43;;;0.77;;
6292;SDS011;3179;54.350;10.102;2023-03-08T03:07:17;1.23;;;0.63;;
6292;SDS011;3179;54.350;10.102;2023-03-08T03:09:43;1.30;;;0.90;;
6292;SDS011;3179;54.350;10.102;2023-03-08T03:12:10;0.90;;;0.60;;
6292;SDS011;3179;54.350;10.102;2023-03-08T03:14:38;1.43;;;0.63;;
6292;SDS011;3179;54.350;10.102;2023-03-08T03:17:05;1.80;;;0.80;;
6292;SDS011;3179;54.350;10.102;2023-03-08T03:19:32;2.37;;;0.60;;
6292;SDS011;3179;54.350;10.102;2023-03-08T03:21:58;0.80;;;0.60;;
6292;SDS011;3179;54.350;10.102;2023-03-08T03:24:25;2.77;;;0.60;;
6292;SDS011;3179;54.350;10.102;2023-03-08T03:26:52;2.70;;;0.90;;
6292;SDS011;3179;54.350;10.102;2023-03-08T03:29:19;2.20;;;0.70;;
6292;SDS011;3179;54.350;10.102;2023-03-08T03:31:47;1.73;;;0.63;;
6292;SDS011;3179;54.350;10.102;2023-03-08T03:34:14;3.60;;;0.80;;
6292;SDS011;3179;54.350;10.102;2023-03-08T03:36:40;1.67;;;0.60;;
6292;SDS011;3179;54.350;10.102;2023-03-08T03:39:07;4.53;;;0.80;;
6292;SDS011;3179;54.350;10.102;2023-03-08T03:41:34;0.70;;;0.60;;
6292;SDS011;3179;54.350;10.102;2023-03-08T03:44:01;1.80;;;0.70;;
6292;SDS011;3179;54.350;10.102;2023-03-08T03:46:28;0.63;;;0.60;;
6292;SDS011;3179;54.350;10.102;2023-03-08T03:48:56;1.03;;;0.93;;
6292;SDS011;3179;54.350;10.102;2023-03-08T03:51:23;1.97;;;0.40;;
6292;SDS011;3179;54.350;10.102;2023-03-08T03:53:50;1.17;;;0.70;;
6292;SDS011;3179;54.350;10.102;2023-03-08T03:56:17;0.77;;;0.60;;
6292;SDS011;3179;54.350;10.102;2023-03-08T03:58:45;0.70;;;0.60;;
6292;SDS011;3179;54.350;10.102;2023-03-08T04:01:13;0.83;;;0.63;;
6292;SDS011;3179;54.350;10.102;2023-03-08T04:03:41;2.00;;;0.73;;
6292;SDS011;3179;54.350;10.102;2023-03-08T04:06:11;3.07;;;0.80;;
6292;SDS011;3179;54.350;10.102;2023-03-08T04:08:39;0.60;;;0.60;;
6292;SDS011;3179;54.350;10.102;2023-03-08T04:11:07;2.37;;;1.00;;
6292;SDS011;3179;54.350;10.102;2023-03-08T04:13:34;2.73;;;1.20;;
6292;SDS011;3179;54.350;10.102;2023-03-08T04:16:07;1.10;;;0.80;;
6292;SDS011;3179;54.350;10.102;2023-03-08T04:18:35;0.90;;;0.67;;
6292;SDS011;3179;54.350;10.102;2023-03-08T04:21:02;1.20;;;0.73;;
6292;SDS011;3179;54.350;10.102;2023-03-08T04:23:30;2.03;;;0.80;;
6292;SDS011;3179;54.350;10.102;2023-03-08T04:25:57;1.00;;;0.80;;
6292;SDS011;3179;54.350;10.102;2023-03-08T04:28:24;1.10;;;0.80;;
6292;SDS011;3179;54.350;10.102;2023-03-08T04:30:51;1.97;;;1.00;;
6292;SDS011;3179;54.350;10.102;2023-03-08T04:33:18;2.23;;;1.20;;
6292;SDS011;3179;54.350;10.102;2023-03-08T04:35:44;1.17;;;0.80;;
6292;SDS011;3179;54.350;10.102;2023-03-08T04:38:11;0.97;;;0.70;;
6292;SDS011;3179;54.350;10.102;2023-03-08T04:40:39;0.77;;;0.77;;
6292;SDS011;3179;54.350;10.102;2023-03-08T04:43:43;1.00;;;1.00;;
6292;SDS011;3179;54.350;10.102;2023-03-08T04:46:11;1.23;;;0.97;;
6292;SDS011;3179;54.350;10.102;2023-03-08T04:48:38;1.20;;;1.10;;
6292;SDS011;3179;54.350;10.102;2023-03-08T04:51:05;1.20;;;1.20;;
6292;SDS011;3179;54.350;10.102;2023-03-08T04:53:33;1.57;;;1.00;;
6292;SDS011;3179;54.350;10.102;2023-03-08T04:56:01;1.47;;;0.70;;
6292;SDS011;3179;54.350;10.102;2023-03-08T04:58:28;1.27;;;0.80;;
6292;SDS011;3179;54.350;10.102;2023-03-08T05:00:56;0.70;;;0.70;;
6292;SDS011;3179;54.350;10.102;2023-03-08T05:03:23;1.20;;;1.10;;
6292;SDS011;3179;54.350;10.102;2023-03-08T05:05:51;1.10;;;1.00;;
6292;SDS011;3179;54.350;10.102;2023-03-08T05:08:19;1.30;;;1.20;;
6292;SDS011;3179;54.350;10.102;2023-03-08T05:10:47;1.23;;;0.87;;
6292;SDS011;3179;54.350;10.102;2023-03-08T05:13:14;1.83;;;1.00;;
6292;SDS011;3179;54.350;10.102;2023-03-08T05:15:41;1.30;;;1.00;;
6292;SDS011;3179;54.350;10.102;2023-03-08T05:18:09;2.30;;;1.23;;
6292;SDS011;3179;54.350;10.102;2023-03-08T05:20:36;0.80;;;0.80;;
6292;SDS011;3179;54.350;10.102;2023-03-08T05:23:03;1.50;;;1.10;;
6292;SDS011;3179;54.350;10.102;2023-03-08T05:25:30;0.97;;;0.97;;
6292;SDS011;3179;54.350;10.102;2023-03-08T05:27:57;1.00;;;1.00;;
6292;SDS011;3179;54.350;10.102;2023-03-08T05:30:24;1.33;;;1.07;;
6292;SDS011;3179;54.350;10.102;2023-03-08T05:32:51;2.00;;;1.33;;
6292;SDS011;3179;54.350;10.102;2023-03-08T05:35:19;1.90;;;1.80;;
6292;SDS011;3179;54.350;10.102;2023-03-08T05:37:46;1.43;;;1.33;;
6292;SDS011;3179;54.350;10.102;2023-03-08T05:40:13;1.60;;;1.50;;
6292;SDS011;3179;54.350;10.102;2023-03-08T05:42:40;1.77;;;1.50;;
6292;SDS011;3179;54.350;10.102;2023-03-08T05:45:07;1.50;;;1.40;;
6292;SDS011;3179;54.350;10.102;2023-03-08T05:47:34;1.30;;;1.30;;
6292;SDS011;3179;54.350;10.102;2023-03-08T05:50:01;2.07;;;1.97;;
6292;SDS011;3179;54.350;10.102;2023-03-08T05:52:29;1.50;;;1.40;;
6292;SDS011;3179;54.350;10.102;2023-03-08T05:54:56;1.33;;;1.23;;
6292;SDS011;3179;54.350;10.102;2023-03-08T05:57:23;2.27;;;2.07;;
6292;SDS011;3179;54.350;10.102;2023-03-08T05:59:50;2.03;;;1.73;;
6292;SDS011;3179;54.350;10.102;2023-03-08T06:02:16;2.40;;;2.20;;
6292;SDS011;3179;54.350;10.102;2023-03-08T06:04:43;3.63;;;2.40;;
6292;SDS011;3179;54.350;10.102;2023-03-08T06:07:10;2.60;;;1.80;;
6292;SDS011;3179;54.350;10.102;2023-03-08T06:09:38;2.23;;;2.10;;
6292;SDS011;3179;54.350;10.102;2023-03-08T06:12:05;3.10;;;2.23;;
6292;SDS011;3179;54.350;10.102;2023-03-08T06:14:32;1.77;;;1.67;;
6292;SDS011;3179;54.350;10.102;2023-03-08T06:16:59;2.40;;;2.03;;
6292;SDS011;3179;54.350;10.102;2023-03-08T06:19:25;1.87;;;1.77;;
6292;SDS011;3179;54.350;10.102;2023-03-08T06:21:52;4.00;;;2.50;;
6292;SDS011;3179;54.350;10.102;2023-03-08T06:24:19;2.53;;;2.33;;
6292;SDS011;3179;54.350;10.102;2023-03-08T06:26:47;2.00;;;1.90;;
6292;SDS011;3179;54.350;10.102;2023-03-08T06:29:14;3.93;;;2.10;;
6292;SDS011;3179;54.350;10.102;2023-03-08T06:31:41;3.60;;;2.90;;
6292;SDS011;3179;54.350;10.102;2023-03-08T06:34:07;3.00;;;2.40;;
6292;SDS011;3179;54.350;10.102;2023-03-08T06:36:35;2.67;;;2.30;;
6292;SDS011;3179;54.350;10.102;2023-03-08T06:39:01;2.60;;;2.40;;
6292;SDS011;3179;54.350;10.102;2023-03-08T06:41:28;2.90;;;2.70;;
6292;SDS011;3179;54.350;10.102;2023-03-08T06:43:56;3.07;;;2.67;;
6292;SDS011;3179;54.350;10.102;2023-03-08T06:46:23;2.33;;;2.13;;
6292;SDS011;3179;54.350;10.102;2023-03-08T06:48:50;3.37;;;2.63;;
6292;SDS011;3179;54.350;10.102;2023-03-08T06:51:18;4.83;;;2.57;;
6292;SDS011;3179;54.350;10.102;2023-03-08T06:53:45;3.10;;;2.40;;
6292;SDS011;3179;54.350;10.102;2023-03-08T06:56:13;2.93;;;2.73;;
6292;SDS011;3179;54.350;10.102;2023-03-08T06:58:41;2.50;;;2.33;;
6292;SDS011;3179;54.350;10.102;2023-03-08T07:01:10;2.80;;;2.60;;
6292;SDS011;3179;54.350;10.102;2023-03-08T07:03:38;2.53;;;2.40;;
6292;SDS011;3179;54.350;10.102;2023-03-08T07:06:06;3.00;;;2.80;;
6292;SDS011;3179;54.350;10.102;2023-03-08T07:08:34;4.83;;;2.27;;
6292;SDS011;3179;54.350;10.102;2023-03-08T07:11:02;2.57;;;2.37;;
6292;SDS011;3179;54.350;10.102;2023-03-08T07:13:30;2.70;;;2.30;;
6292;SDS011;3179;54.350;10.102;2023-03-08T07:15:57;3.43;;;2.00;;
6292;SDS011;3179;54.350;10.102;2023-03-08T07:18:25;2.37;;;2.17;;
6292;SDS011;3179;54.350;10.102;2023-03-08T07:20:53;2.60;;;2.10;;
6292;SDS011;3179;54.350;10.102;2023-03-08T07:23:21;2.50;;;2.30;;
6292;SDS011;3179;54.350;10.102;2023-03-08T07:25:47;2.13;;;2.00;;
6292;SDS011;3179;54.350;10.102;2023-03-08T07:28:14;2.10;;;2.00;;
6292;SDS011;3179;54.350;10.102;2023-03-08T07:30:44;3.00;;;2.40;;
6292;SDS011;3179;54.350;10.102;2023-03-08T07:33:12;2.70;;;2.50;;
6292;SDS011;3179;54.350;10.102;2023-03-08T07:35:40;2.50;;;2.30;;
6292;SDS011;3179;54.350;10.102;2023-03-08T07:38:07;2.17;;;2.07;;
6292;SDS011;3179;54.350;10.102;2023-03-08T07:40:36;2.50;;;2.30;;
6292;SDS011;3179;54.350;10.102;2023-03-08T07:43:03;2.37;;;1.90;;
6292;SDS011;3179;54.350;10.102;2023-03-08T07:45:30;2.73;;;2.53;;
6292;SDS011;3179;54.350;10.102;2023-03-08T07:47:57;1.70;;;1.60;;
6292;SDS011;3179;54.350;10.102;2023-03-08T07:50:24;2.17;;;2.07;;
6292;SDS011;3179;54.350;10.102;2023-03-08T07:52:52;2.77;;;2.37;;
6292;SDS011;3179;54.350;10.102;2023-03-08T07:55:18;1.67;;;1.57;;
6292;SDS011;3179;54.350;10.102;2023-03-08T07:57:46;1.70;;;1.60;;
6292;SDS011;3179;54.350;10.102;2023-03-08T08:00:13;2.00;;;1.87;;
6292;SDS011;3179;54.350;10.102;2023-03-08T08:02:40;1.90;;;1.80;;
6292;SDS011;3179;54.350;10.102;2023-03-08T08:05:07;1.80;;;1.70;;
6292;SDS011;3179;54.350;10.102;2023-03-08T08:07:34;2.40;;;2.20;;
6292;SDS011;3179;54.350;10.102;2023-03-08T08:10:02;1.90;;;1.80;;
6292;SDS011;3179;54.350;10.102;2023-03-08T08:12:29;1.80;;;1.70;;
6292;SDS011;3179;54.350;10.102;2023-03-08T08:14:56;2.77;;;2.57;;
6292;SDS011;3179;54.350;10.102;2023-03-08T08:17:24;1.80;;;1.70;;
6292;SDS011;3179;54.350;10.102;2023-03-08T08:19:50;1.90;;;1.80;;
6292;SDS011;3179;54.350;10.102;2023-03-08T08:22:17;2.80;;;1.80;;
6292;SDS011;3179;54.350;10.102;2023-03-08T08:24:44;1.83;;;1.73;;
6292;SDS011;3179;54.350;10.102;2023-03-08T08:27:12;2.40;;;2.20;;
6292;SDS011;3179;54.350;10.102;2023-03-08T08:29:39;3.00;;;2.80;;
6292;SDS011;3179;54.350;10.102;2023-03-08T08:32:06;2.30;;;2.07;;
6292;SDS011;3179;54.350;10.102;2023-03-08T08:34:33;2.13;;;1.80;;
6292;SDS011;3179;54.350;10.102;2023-03-08T08:36:59;1.80;;;1.70;;
6292;SDS011;3179;54.350;10.102;2023-03-08T08:39:26;1.97;;;1.87;;
6292;SDS011;3179;54.350;10.102;2023-03-08T08:41:53;2.70;;;2.50;;
6292;SDS011;3179;54.350;10.102;2023-03-08T08:44:21;2.47;;;2.27;;
6292;SDS011;3179;54.350;10.102;2023-03-08T08:46:48;2.17;;;1.97;;
6292;SDS011;3179;54.350;10.102;2023-03-08T08:49:14;2.17;;;2.07;;
6292;SDS011;3179;54.350;10.102;2023-03-08T08:51:41;2.70;;;2.50;;
6292;SDS011;3179;54.350;10.102;2023-03-08T08:54:08;3.47;;;3.17;;
6292;SDS011;3179;54.350;10.102;2023-03-08T08:56:35;2.00;;;1.90;;
6292;SDS011;3179;54.350;10.102;2023-03-08T08:59:08;2.20;;;2.10;;
6292;SDS011;3179;54.350;10.102;2023-03-08T09:01:37;2.03;;;1.83;;
6292;SDS011;3179;54.350;10.102;2023-03-08T09:04:07;2.10;;;2.00;;
6292;SDS011;3179;54.350;10.102;2023-03-08T09:06:34;3.83;;;2.03;;
6292;SDS011;3179;54.350;10.102;2023-03-08T09:09:02;3.00;;;2.80;;
6292;SDS011;3179;54.350;10.102;2023-03-08T09:11:29;2.80;;;2.60;;
6292;SDS011;3179;54.350;10.102;2023-03-08T09:13:57;2.90;;;2.70;;
6292;SDS011;3179;54.350;10.102;2023-03-08T09:16:24;4.60;;;2.47;;
6292;SDS011;3179;54.350;10.102;2023-03-08T09:18:53;2.87;;;2.60;;
6292;SDS011;3179;54.350;10.102;2023-03-08T09:21:21;1.67;;;1.57;;
6292;SDS011;3179;54.350;10.102;2023-03-08T09:23:48;2.50;;;2.27;;
6292;SDS011;3179;54.350;10.102;2023-03-08T09:26:15;4.03;;;2.10;;
6292;SDS011;3179;54.350;10.102;2023-03-08T09:28:42;3.77;;;2.33;;
6292;SDS011;3179;54.350;10.102;2023-03-08T09:31:09;2.53;;;2.10;;
6292;SDS011;3179;54.350;10.102;2023-03-08T09:33:39;2.20;;;2.10;;
6292;SDS011;3179;54.350;10.102;2023-03-08T09:36:07;1.77;;;1.67;;
6292;SDS011;3179;54.350;10.102;2023-03-08T09:38:34;1.73;;;1.63;;
6292;SDS011;3179;54.350;10.102;2023-03-08T09:41:05;2.50;;;2.40;;
6292;SDS011;3179;54.350;10.102;2023-03-08T09:43:46;7.60;;;2.63;;
6292;SDS011;3179;54.350;10.102;2023-03-08T09:46:26;2.70;;;2.50;;
6292;SDS011;3179;54.350;10.102;2023-03-08T09:48:58;2.60;;;2.40;;
6292;SDS011;3179;54.350;10.102;2023-03-08T09:51:30;3.03;;;2.83;;
6292;SDS011;3179;54.350;10.102;2023-03-08T09:54:02;2.90;;;2.70;;
6292;SDS011;3179;54.350;10.102;2023-03-08T09:56:32;4.73;;;3.40;;
6292;SDS011;3179;54.350;10.102;2023-03-08T09:59:04;3.40;;;3.10;;
6292;SDS011;3179;54.350;10.102;2023-03-08T10:01:37;3.17;;;2.97;;
6292;SDS011;3179;54.350;10.102;2023-03-08T10:07:12;2.67;;;2.50;;
6292;SDS011;3179;54.350;10.102;2023-03-08T10:09:47;2.50;;;2.40;;
6292;SDS011;3179;54.350;10.102;2023-03-08T10:12:22;3.23;;;3.03;;
6292;SDS011;3179;54.350;10.102;2023-03-08T10:14:53;2.77;;;2.50;;
6292;SDS011;3179;54.350;10.102;2023-03-08T10:17:24;3.53;;;3.30;;
6292;SDS011;3179;54.350;10.102;2023-03-08T10:19:59;3.57;;;3.27;;
6292;SDS011;3179;54.350;10.102;2023-03-08T10:22:34;3.80;;;3.50;;
6292;SDS011;3179;54.350;10.102;2023-03-08T10:25:10;3.37;;;3.07;;
6292;SDS011;3179;54.350;10.102;2023-03-08T10:27:45;3.20;;;3.00;;
6292;SDS011;3179;54.350;10.102;2023-03-08T10:30:16;3.43;;;3.13;;
6292;SDS011;3179;54.350;10.102;2023-03-08T10:32:46;3.53;;;3.27;;
6292;SDS011;3179;54.350;10.102;2023-03-08T10:35:14;7.33;;;3.60;;
6292;SDS011;3179;54.350;10.102;2023-03-08T10:37:48;3.30;;;3.10;;
6292;SDS011;3179;54.350;10.102;2023-03-08T10:40:17;5.10;;;3.60;;
6292;SDS011;3179;54.350;10.102;2023-03-08T10:42:48;3.70;;;3.40;;
6292;SDS011;3179;54.350;10.102;2023-03-08T10:45:19;3.63;;;3.43;;
6292;SDS011;3179;54.350;10.102;2023-03-08T10:47:57;3.33;;;3.13;;
6292;SDS011;3179;54.350;10.102;2023-03-08T10:50:26;4.80;;;4.07;;
6292;SDS011;3179;54.350;10.102;2023-03-08T10:53:06;3.50;;;3.20;;
6292;SDS011;3179;54.350;10.102;2023-03-08T10:55:37;5.30;;;3.33;;
6292;SDS011;3179;54.350;10.102;2023-03-08T10:58:21;3.30;;;3.03;;
6292;SDS011;3179;54.350;10.102;2023-03-08T11:01:02;2.93;;;2.73;;
6292;SDS011;3179;54.350;10.102;2023-03-08T11:03:30;3.40;;;2.83;;
6292;SDS011;3179;54.350;10.102;2023-03-08T11:05:58;2.90;;;2.70;;
6292;SDS011;3179;54.350;10.102;2023-03-08T11:08:29;3.60;;;3.30;;
6292;SDS011;3179;54.350;10.102;2023-03-08T11:10:59;3.30;;;3.07;;
6292;SDS011;3179;54.350;10.102;2023-03-08T11:13:27;3.00;;;2.80;;
6292;SDS011;3179;54.350;10.102;2023-03-08T11:15:58;3.53;;;3.23;;
6292;SDS011;3179;54.350;10.102;2023-03-08T11:18:36;3.60;;;3.30;;
6292;SDS011;3179;54.350;10.102;2023-03-08T11:21:12;3.50;;;3.27;;
6292;SDS011;3179;54.350;10.102;2023-03-08T11:23:47;4.10;;;3.73;;
6292;SDS011;3179;54.350;10.102;2023-03-08T11:26:19;6.23;;;3.87;;
6292;SDS011;3179;54.350;10.102;2023-03-08T11:28:56;4.40;;;3.90;;
6292;SDS011;3179;54.350;10.102;2023-03-08T11:31:38;4.60;;;4.20;;
6292;SDS011;3179;54.350;10.102;2023-03-08T11:34:25;5.57;;;3.93;;
6292;SDS011;3179;54.350;10.102;2023-03-08T11:37:05;3.90;;;3.63;;
6292;SDS011;3179;54.350;10.102;2023-03-08T11:39:41;4.37;;;3.63;;
6292;SDS011;3179;54.350;10.102;2023-03-08T11:42:14;3.53;;;3.23;;
6292;SDS011;3179;54.350;10.102;2023-03-08T11:44:53;3.70;;;3.27;;
6292;SDS011;3179;54.350;10.102;2023-03-08T11:48:04;4.57;;;3.10;;
6292;SDS011;3179;54.350;10.102;2023-03-08T11:50:41;2.37;;;2.17;;
6292;SDS011;3179;54.350;10.102;2023-03-08T11:53:16;3.00;;;2.70;;
6292;SDS011;3179;54.350;10.102;2023-03-08T11:56:02;2.77;;;2.57;;
6292;SDS011;3179;54.350;10.102;2023-03-08T11:58:39;3.27;;;2.97;;
6292;SDS011;3179;54.350;10.102;2023-03-08T12:01:10;3.37;;;2.50;;
6292;SDS011;3179;54.350;10.102;2023-03-08T12:03:42;4.70;;;2.77;;
6292;SDS011;3179;54.350;10.102;2023-03-08T12:06:12;3.57;;;2.77;;
6292;SDS011;3179;54.350;10.102;2023-03-08T12:08:44;2.60;;;2.20;;
6292;SDS011;3179;54.350;10.102;2023-03-08T12:11:17;2.63;;;2.47;;
6292;SDS011;3179;54.350;10.102;2023-03-08T12:13:49;2.60;;;2.40;;
6292;SDS011;3179;54.350;10.102;2023-03-08T12:16:21;2.70;;;2.53;;
6292;SDS011;3179;54.350;10.102;2023-03-08T12:18:50;2.70;;;2.50;;
6292;SDS011;3179;54.350;10.102;2023-03-08T12:21:32;2.10;;;1.90;;
6292;SDS011;3179;54.350;10.102;2023-03-08T12:24:10;2.70;;;2.50;;
6292;SDS011;3179;54.350;10.102;2023-03-08T12:26:49;2.33;;;2.13;;
6292;SDS011;3179;54.350;10.102;2023-03-08T12:29:22;2.60;;;2.50;;
6292;SDS011;3179;54.350;10.102;2023-03-08T12:31:54;3.00;;;2.70;;
6292;SDS011;3179;54.350;10.102;2023-03-08T12:34:24;4.93;;;2.97;;
6292;SDS011;3179;54.350;10.102;2023-03-08T12:36:53;2.67;;;2.47;;
6292;SDS011;3179;54.350;10.102;2023-03-08T12:39:24;2.03;;;1.83;;
6292;SDS011;3179;54.350;10.102;2023-03-08T12:41:58;2.30;;;2.20;;
6292;SDS011;3179;54.350;10.102;2023-03-08T12:44:26;3.53;;;2.30;;
6292;SDS011;3179;54.350;10.102;2023-03-08T12:46:55;1.80;;;1.70;;
6292;SDS011;3179;54.350;10.102;2023-03-08T12:49:25;2.43;;;2.23;;
6292;SDS011;3179;54.350;10.102;2023-03-08T12:51:57;3.43;;;3.13;;
6292;SDS011;3179;54.350;10.102;2023-03-08T12:54:25;4.90;;;2.93;;
6292;SDS011;3179;54.350;10.102;2023-03-08T12:56:55;2.40;;;2.20;;
6292;SDS011;3179;54.350;10.102;2023-03-08T12:59:28;2.70;;;2.50;;
6292;SDS011;3179;54.350;10.102;2023-03-08T13:02:01;2.40;;;1.90;;
6292;SDS011;3179;54.350;10.102;2023-03-08T13:04:46;1.80;;;1.70;;
6292;SDS011;3179;54.350;10.102;2023-03-08T13:07:17;1.80;;;1.70;;
6292;SDS011;3179;54.350;10.102;2023-03-08T13:09:51;2.30;;;2.10;;
6292;SDS011;3179;54.350;10.102;2023-03-08T13:12:24;1.60;;;1.50;;
6292;SDS011;3179;54.350;10.102;2023-03-08T13:14:59;1.63;;;1.53;;
6292;SDS011;3179;54.350;10.102;2023-03-08T13:17:35;2.10;;;2.00;;
6292;SDS011;3179;54.350;10.102;2023-03-08T13:20:09;2.90;;;2.07;;
6292;SDS011;3179;54.350;10.102;2023-03-08T13:22:43;3.73;;;1.93;;
6292;SDS011;3179;54.350;10.102;2023-03-08T13:25:17;3.10;;;2.10;;
6292;SDS011;3179;54.350;10.102;2023-03-08T13:27:53;4.00;;;2.37;;
6292;SDS011;3179;54.350;10.102;2023-03-08T13:30:27;2.90;;;2.60;;
6292;SDS011;3179;54.350;10.102;2023-03-08T13:32:57;3.60;;;2.10;;
6292;SDS011;3179;54.350;10.102;2023-03-08T13:35:25;2.40;;;1.87;;
6292;SDS011;3179;54.350;10.102;2023-03-08T13:37:52;2.90;;;2.30;;
6292;SDS011;3179;54.350;10.102;2023-03-08T13:40:20;2.30;;;2.10;;
6292;SDS011;3179;54.350;10.102;2023-03-08T13:42:51;3.37;;;2.07;;
6292;SDS011;3179;54.350;10.102;2023-03-08T13:45:22;3.87;;;2.40;;
6292;SDS011;3179;54.350;10.102;2023-03-08T13:47:50;3.67;;;2.80;;
6292;SDS011;3179;54.350;10.102;2023-03-08T13:50:19;2.30;;;2.10;;
6292;SDS011;3179;54.350;10.102;2023-03-08T13:53:01;2.40;;;2.20;;
6292;SDS011;3179;54.350;10.102;2023-03-08T13:55:33;2.17;;;2.03;;
6292;SDS011;3179;54.350;10.102;2023-03-08T13:58:01;1.80;;;1.63;;
6292;SDS011;3179;54.350;10.102;2023-03-08T14:00:29;3.20;;;1.90;;
6292;SDS011;3179;54.350;10.102;2023-03-08T14:02:59;1.90;;;1.80;;
6292;SDS011;3179;54.350;10.102;2023-03-08T14:05:28;3.30;;;2.20;;
6292;SDS011;3179;54.350;10.102;2023-03-08T14:07:56;3.80;;;2.23;;
6292;SDS011;3179;54.350;10.102;2023-03-08T14:10:27;2.53;;;2.20;;
6292;SDS011;3179;54.350;10.102;2023-03-08T14:12:59;4.20;;;2.63;;
6292;SDS011;3179;54.350;10.102;2023-03-08T14:15:26;2.70;;;2.50;;
6292;SDS011;3179;54.350;10.102;2023-03-08T14:17:54;2.60;;;2.40;;
6292;SDS011;3179;54.350;10.102;2023-03-08T14:20:23;2.63;;;2.43;;
6292;SDS011;3179;54.350;10.102;2023-03-08T14:22:51;2.17;;;2.07;;
6292;SDS011;3179;54.350;10.102;2023-03-08T14:25:20;2.70;;;2.50;;
6292;SDS011;3179;54.350;10.102;2023-03-08T14:27:49;2.07;;;1.90;;
6292;SDS011;3179;54.350;10.102;2023-03-08T14:30:18;3.90;;;2.90;;
6292;SDS011;3179;54.350;10.102;2023-03-08T14:32:57;2.70;;;2.50;;
6292;SDS011;3179;54.350;10.102;2023-03-08T14:35:31;2.10;;;2.00;;
6292;SDS011;3179;54.350;10.102;2023-03-08T14:38:00;1.80;;;1.70;;
6292;SDS011;3179;54.350;10.102;2023-03-08T14:40:29;1.73;;;1.63;;
6292;SDS011;3179;54.350;10.102;2023-03-08T14:42:58;2.60;;;2.40;;
6292;SDS011;3179;54.350;10.102;2023-03-08T14:45:29;1.90;;;1.80;;
6292;SDS011;3179;54.350;10.102;2023-03-08T14:48:01;3.17;;;2.00;;
6292;SDS011;3179;54.350;10.102;2023-03-08T14:50:51;1.73;;;1.63;;
6292;SDS011;3179;54.350;10.102;2023-03-08T14:53:25;1.90;;;1.70;;
6292;SDS011;3179;54.350;10.102;2023-03-08T14:55:56;2.43;;;1.97;;
6292;SDS011;3179;54.350;10.102;2023-03-08T14:58:25;1.83;;;1.73;;
6292;SDS011;3179;54.350;10.102;2023-03-08T15:00:55;2.00;;;1.50;;
6292;SDS011;3179;54.350;10.102;2023-03-08T15:03:24;2.10;;;1.80;;
6292;SDS011;3179;54.350;10.102;2023-03-08T15:05:52;1.60;;;1.50;;
6292;SDS011;3179;54.350;10.102;2023-03-08T15:08:20;1.53;;;1.43;;
6292;SDS011;3179;54.350;10.102;2023-03-08T15:10:47;1.50;;;1.40;;
6292;SDS011;3179;54.350;10.102;2023-03-08T15:13:15;2.03;;;1.60;;
6292;SDS011;3179;54.350;10.102;2023-03-08T15:15:43;2.20;;;2.00;;
6292;SDS011;3179;54.350;10.102;2023-03-08T15:18:10;2.50;;;1.70;;
6292;SDS011;3179;54.350;10.102;2023-03-08T15:20:37;2.67;;;1.67;;